sensor_id;sensor_type;location;lat;lon;timestamp;pressure;altitude;pressure_sealevel;temperature;humidity
18533;BME280;9396;51.510;11.934;2023-07-22T00:02:13;100173.19;;;16.16;100.00
18533;BME280;9396;51.510;11.934;2023-07-22T00:04:40;100179.13;;;16.12;100.00
18533;BME280;9396;51.510;11.934;2023-07-22T00:07:08;100178.56;;;15.95;100.00
18533;BME280;9396;51.510;11.934;2023-07-22T00:09:35;100182.81;;;15.83;100.00
18533;BME280;9396;51.510;11.934;2023-07-22T00:12:04;100188.69;;;15.93;100.00
18533;BME280;9396;51.510;11.934;2023-07-22T00:14:31;100189.47;;;15.87;100.00
18533;BME280;9396;51.510;11.934;2023-07-22T00:16:58;100191.09;;;15.88;100.00
18533;BME280;9396;51.510;11.934;2023-07-22T00:19:24;100186.44;;;15.96;100.00
18533;BME280;9396;51.510;11.934;2023-07-22T00:21:51;100193.94;;;16.07;100.00
18533;BME280;9396;51.510;11.934;2023-07-22T00:24:19;100192.56;;;16.12;100.00
18533;BME280;9396;51.510;11.934;2023-07-22T00:26:47;100187.13;;;16.05;100.00
18533;BME280;9396;51.510;11.934;2023-07-22T00:29:15;100184.66;;;16.03;100.00
18533;BME280;9396;51.510;11.934;2023-07-22T00:31:41;100186.69;;;16.01;100.00
18533;BME280;9396;51.510;11.934;2023-07-22T00:34:08;100193.06;;;16.00;100.00
18533;BME280;9396;51.510;11.934;2023-07-22T00:36:35;100188.41;;;16.09;100.00
18533;BME280;9396;51.510;11.934;2023-07-22T00:39:03;100191.09;;;16.09;100.00
18533;BME280;9396;51.510;11.934;2023-07-22T00:41:31;100187.56;;;16.08;100.00
18533;BME280;9396;51.510;11.934;2023-07-22T00:43:58;100191.91;;;16.09;100.00
18533;BME280;9396;51.510;11.934;2023-07-22T00:46:25;100190.03;;;16.03;100.00
18533;BME280;9396;51.510;11.934;2023-07-22T00:48:51;100182.13;;;16.02;100.00
18533;BME280;9396;51.510;11.934;2023-07-22T00:51:19;100186.78;;;16.15;100.00
18533;BME280;9396;51.510;11.934;2023-07-22T00:53:47;100187.41;;;16.17;100.00
18533;BME280;9396;51.510;11.934;2023-07-22T00:56:14;100175.72;;;16.24;100.00
18533;BME280;9396;51.510;11.934;2023-07-22T00:58:44;100185.69;;;16.30;100.00
18533;BME280;9396;51.510;11.934;2023-07-22T01:01:10;100191.84;;;16.31;100.00
18533;BME280;9396;51.510;11.934;2023-07-22T01:03:37;100199.91;;;16.31;100.00
18533;BME280;9396;51.510;11.934;2023-07-22T01:06:04;100191.41;;;16.27;99.73
18533;BME280;9396;51.510;11.934;2023-07-22T01:08:31;100184.81;;;16.23;99.60
18533;BME280;9396;51.510;11.934;2023-07-22T01:10:58;100189.13;;;16.24;99.42
18533;BME280;9396;51.510;11.934;2023-07-22T01:13:25;100186.50;;;16.31;98.85
18533;BME280;9396;51.510;11.934;2023-07-22T01:15:54;100188.38;;;16.30;98.71
18533;BME280;9396;51.510;11.934;2023-07-22T01:18:20;100187.63;;;16.15;99.27
18533;BME280;9396;51.510;11.934;2023-07-22T01:20:47;100192.16;;;16.15;99.82
18533;BME280;9396;51.510;11.934;2023-07-22T01:23:16;100203.09;;;16.13;100.00
18533;BME280;9396;51.510;11.934;2023-07-22T01:25:43;100201.19;;;16.07;100.00
18533;BME280;9396;51.510;11.934;2023-07-22T01:28:10;100213.97;;;16.05;100.00
18533;BME280;9396;51.510;11.934;2023-07-22T01:30:37;100212.31;;;15.83;100.00
18533;BME280;9396;51.510;11.934;2023-07-22T01:33:05;100200.94;;;15.81;100.00
18533;BME280;9396;51.510;11.934;2023-07-22T01:35:31;100209.06;;;15.87;100.00
18533;BME280;9396;51.510;11.934;2023-07-22T01:37:58;100209.19;;;15.79;100.00
18533;BME280;9396;51.510;11.934;2023-07-22T01:40:27;100204.47;;;15.81;100.00
18533;BME280;9396;51.510;11.934;2023-07-22T01:42:53;100202.88;;;15.87;100.00
18533;BME280;9396;51.510;11.934;2023-07-22T01:45:20;100214.16;;;15.82;100.00
18533;BME280;9396;51.510;11.934;2023-07-22T01:47:47;100214.94;;;15.55;100.00
18533;BME280;9396;51.510;11.934;2023-07-22T01:50:13;100212.47;;;15.39;100.00
18533;BME280;9396;51.510;11.934;2023-07-22T01:52:39;100209.88;;;15.46;100.00
18533;BME280;9396;51.510;11.934;2023-07-22T01:55:07;100210.59;;;15.40;100.00
18533;BME280;9396;51.510;11.934;2023-07-22T01:57:37;100204.63;;;15.38;100.00
18533;BME280;9396;51.510;11.934;2023-07-22T02:00:06;100206.06;;;15.55;100.00
18533;BME280;9396;51.510;11.934;2023-07-22T02:02:33;100208.75;;;15.55;100.00
18533;BME280;9396;51.510;11.934;2023-07-22T02:05:00;100214.50;;;15.52;100.00
18533;BME280;9396;51.510;11.934;2023-07-22T02:07:27;100220.59;;;15.46;100.00
18533;BME280;9396;51.510;11.934;2023-07-22T02:09:54;100224.66;;;15.42;100.00
18533;BME280;9396;51.510;11.934;2023-07-22T02:12:21;100229.34;;;15.40;100.00
18533;BME280;9396;51.510;11.934;2023-07-22T02:14:49;100237.00;;;15.22;100.00
18533;BME280;9396;51.510;11.934;2023-07-22T02:17:16;100236.13;;;15.36;100.00
18533;BME280;9396;51.510;11.934;2023-07-22T02:19:43;100235.50;;;15.34;100.00
18533;BME280;9396;51.510;11.934;2023-07-22T02:22:10;100233.81;;;15.33;100.00
18533;BME280;9396;51.510;11.934;2023-07-22T02:24:36;100230.38;;;15.39;100.00
18533;BME280;9396;51.510;11.934;2023-07-22T02:27:03;100235.03;;;15.45;100.00
18533;BME280;9396;51.510;11.934;2023-07-22T02:29:30;100237.84;;;15.58;100.00
18533;BME280;9396;51.510;11.934;2023-07-22T02:31:59;100239.59;;;15.65;100.00
18533;BME280;9396;51.510;11.934;2023-07-22T02:34:25;100240.31;;;15.59;100.00
18533;BME280;9396;51.510;11.934;2023-07-22T02:36:52;100242.50;;;15.49;100.00
18533;BME280;9396;51.510;11.934;2023-07-22T02:39:18;100250.16;;;15.52;100.00
18533;BME280;9396;51.510;11.934;2023-07-22T02:41:45;100251.16;;;15.66;100.00
18533;BME280;9396;51.510;11.934;2023-07-22T02:44:12;100254.72;;;15.52;100.00
18533;BME280;9396;51.510;11.934;2023-07-22T02:46:38;100252.72;;;15.60;100.00
18533;BME280;9396;51.510;11.934;2023-07-22T02:49:08;100250.59;;;15.56;100.00
18533;BME280;9396;51.510;11.934;2023-07-22T02:51:35;100254.50;;;15.53;100.00
18533;BME280;9396;51.510;11.934;2023-07-22T02:54:02;100269.06;;;15.44;100.00
18533;BME280;9396;51.510;11.934;2023-07-22T02:56:29;100259.03;;;15.38;100.00
18533;BME280;9396;51.510;11.934;2023-07-22T02:58:55;100266.19;;;15.46;100.00
18533;BME280;9396;51.510;11.934;2023-07-22T03:01:23;100263.94;;;15.35;100.00
18533;BME280;9396;51.510;11.934;2023-07-22T03:03:49;100267.00;;;15.32;100.00
18533;BME280;9396;51.510;11.934;2023-07-22T03:06:18;100268.03;;;15.31;100.00
18533;BME280;9396;51.510;11.934;2023-07-22T03:08:45;100263.63;;;15.09;100.00
18533;BME280;9396;51.510;11.934;2023-07-22T03:11:11;100261.78;;;15.09;100.00
18533;BME280;9396;51.510;11.934;2023-07-22T03:13:38;100267.59;;;15.13;100.00
18533;BME280;9396;51.510;11.934;2023-07-22T03:16:05;100267.03;;;15.17;100.00
18533;BME280;9396;51.510;11.934;2023-07-22T03:18:33;100269.81;;;15.09;100.00
18533;BME280;9396;51.510;11.934;2023-07-22T03:21:00;100277.66;;;14.96;100.00
18533;BME280;9396;51.510;11.934;2023-07-22T03:23:28;100273.88;;;14.90;100.00
18533;BME280;9396;51.510;11.934;2023-07-22T03:25:54;100282.28;;;14.87;100.00
18533;BME280;9396;51.510;11.934;2023-07-22T03:28:22;100269.09;;;14.86;100.00
18533;BME280;9396;51.510;11.934;2023-07-22T03:30:51;100277.38;;;14.91;100.00
18533;BME280;9396;51.510;11.934;2023-07-22T03:33:18;100272.13;;;14.97;100.00
18533;BME280;9396;51.510;11.934;2023-07-22T03:35:45;100285.06;;;15.09;100.00
18533;BME280;9396;51.510;11.934;2023-07-22T03:38:12;100284.84;;;14.95;100.00
18533;BME280;9396;51.510;11.934;2023-07-22T03:40:40;100283.75;;;15.04;100.00
18533;BME280;9396;51.510;11.934;2023-07-22T03:43:07;100294.75;;;14.95;100.00
18533;BME280;9396;51.510;11.934;2023-07-22T03:45:34;100294.09;;;14.93;100.00
18533;BME280;9396;51.510;11.934;2023-07-22T03:48:01;100289.00;;;14.83;100.00
18533;BME280;9396;51.510;11.934;2023-07-22T03:50:28;100294.16;;;14.70;100.00
18533;BME280;9396;51.510;11.934;2023-07-22T03:52:55;100290.88;;;14.68;100.00
18533;BME280;9396;51.510;11.934;2023-07-22T03:55:21;100283.38;;;14.78;100.00
18533;BME280;9396;51.510;11.934;2023-07-22T03:57:50;100293.25;;;14.78;100.00
18533;BME280;9396;51.510;11.934;2023-07-22T04:00:17;100299.63;;;14.77;100.00
18533;BME280;9396;51.510;11.934;2023-07-22T04:02:43;100292.78;;;14.74;100.00
18533;BME280;9396;51.510;11.934;2023-07-22T04:05:10;100295.94;;;14.92;100.00
18533;BME280;9396;51.510;11.934;2023-07-22T04:07:37;100297.44;;;14.95;100.00
18533;BME280;9396;51.510;11.934;2023-07-22T04:10:04;100298.44;;;14.94;100.00
18533;BME280;9396;51.510;11.934;2023-07-22T04:12:31;100312.56;;;15.02;100.00
18533;BME280;9396;51.510;11.934;2023-07-22T04:14:59;100300.94;;;14.95;100.00
18533;BME280;9396;51.510;11.934;2023-07-22T04:17:26;100314.59;;;15.00;100.00
18533;BME280;9396;51.510;11.934;2023-07-22T04:19:53;100310.34;;;15.06;100.00
18533;BME280;9396;51.510;11.934;2023-07-22T04:22:20;100285.41;;;14.76;100.00
18533;BME280;9396;51.510;11.934;2023-07-22T04:24:47;100318.13;;;15.01;100.00
18533;BME280;9396;51.510;11.934;2023-07-22T04:27:14;100316.66;;;14.98;100.00
18533;BME280;9396;51.510;11.934;2023-07-22T04:29:41;100321.38;;;14.96;100.00
18533;BME280;9396;51.510;11.934;2023-07-22T04:32:09;100332.16;;;14.88;100.00
18533;BME280;9396;51.510;11.934;2023-07-22T04:34:36;100322.94;;;15.06;100.00
18533;BME280;9396;51.510;11.934;2023-07-22T04:37:03;100326.69;;;15.26;100.00
18533;BME280;9396;51.510;11.934;2023-07-22T04:39:30;100330.78;;;15.22;100.00
18533;BME280;9396;51.510;11.934;2023-07-22T04:41:57;100334.38;;;15.29;100.00
18533;BME280;9396;51.510;11.934;2023-07-22T04:44:23;100323.94;;;15.34;99.41
18533;BME280;9396;51.510;11.934;2023-07-22T04:46:50;100328.28;;;15.35;99.56
18533;BME280;9396;51.510;11.934;2023-07-22T04:49:18;100329.78;;;15.52;99.47
18533;BME280;9396;51.510;11.934;2023-07-22T04:51:45;100329.22;;;15.42;99.17
18533;BME280;9396;51.510;11.934;2023-07-22T04:54:12;100330.13;;;15.49;99.43
18533;BME280;9396;51.510;11.934;2023-07-22T04:56:38;100345.47;;;15.55;99.68
18533;BME280;9396;51.510;11.934;2023-07-22T04:59:05;100344.88;;;15.74;99.12
18533;BME280;9396;51.510;11.934;2023-07-22T05:01:32;100353.97;;;15.73;98.61
18533;BME280;9396;51.510;11.934;2023-07-22T05:03:58;100345.59;;;15.82;97.55
18533;BME280;9396;51.510;11.934;2023-07-22T05:06:28;100348.25;;;15.61;97.68
18533;BME280;9396;51.510;11.934;2023-07-22T05:08:55;100340.00;;;15.63;98.74
18533;BME280;9396;51.510;11.934;2023-07-22T05:11:21;100346.00;;;15.79;98.69
18533;BME280;9396;51.510;11.934;2023-07-22T05:13:49;100357.06;;;15.91;97.27
18533;BME280;9396;51.510;11.934;2023-07-22T05:16:15;100351.19;;;16.02;96.93
18533;BME280;9396;51.510;11.934;2023-07-22T05:18:42;100353.25;;;16.00;97.50
18533;BME280;9396;51.510;11.934;2023-07-22T05:21:09;100342.66;;;16.13;96.96
18533;BME280;9396;51.510;11.934;2023-07-22T05:23:37;100343.22;;;16.08;96.21
18533;BME280;9396;51.510;11.934;2023-07-22T05:26:03;100342.34;;;16.23;95.90
18533;BME280;9396;51.510;11.934;2023-07-22T05:28:30;100349.16;;;16.25;95.79
18533;BME280;9396;51.510;11.934;2023-07-22T05:30:56;100345.91;;;16.08;96.93
18533;BME280;9396;51.510;11.934;2023-07-22T05:33:23;100351.72;;;16.12;97.09
18533;BME280;9396;51.510;11.934;2023-07-22T05:35:50;100349.88;;;16.13;96.75
18533;BME280;9396;51.510;11.934;2023-07-22T05:38:17;100346.56;;;16.11;96.53
18533;BME280;9396;51.510;11.934;2023-07-22T05:40:45;100349.50;;;16.16;96.50
18533;BME280;9396;51.510;11.934;2023-07-22T05:43:11;100347.50;;;16.24;95.74
18533;BME280;9396;51.510;11.934;2023-07-22T05:45:38;100352.88;;;16.24;94.51
18533;BME280;9396;51.510;11.934;2023-07-22T05:48:05;100351.09;;;16.31;95.09
18533;BME280;9396;51.510;11.934;2023-07-22T05:50:32;100355.47;;;16.32;94.32
18533;BME280;9396;51.510;11.934;2023-07-22T05:52:58;100350.69;;;16.34;92.99
18533;BME280;9396;51.510;11.934;2023-07-22T05:55:25;100356.47;;;16.52;94.18
18533;BME280;9396;51.510;11.934;2023-07-22T05:57:53;100357.09;;;16.75;91.99
18533;BME280;9396;51.510;11.934;2023-07-22T06:00:20;100358.72;;;16.97;91.43
18533;BME280;9396;51.510;11.934;2023-07-22T06:02:47;100360.13;;;17.21;90.57
18533;BME280;9396;51.510;11.934;2023-07-22T06:05:14;100359.75;;;17.65;88.65
18533;BME280;9396;51.510;11.934;2023-07-22T06:07:40;100362.16;;;17.94;86.96
18533;BME280;9396;51.510;11.934;2023-07-22T06:10:07;100362.44;;;18.18;86.99
18533;BME280;9396;51.510;11.934;2023-07-22T06:12:34;100351.94;;;18.50;86.84
18533;BME280;9396;51.510;11.934;2023-07-22T06:15:04;100353.19;;;18.86;85.76
18533;BME280;9396;51.510;11.934;2023-07-22T06:17:30;100354.19;;;19.18;86.63
18533;BME280;9396;51.510;11.934;2023-07-22T06:19:57;100353.31;;;19.50;85.88
18533;BME280;9396;51.510;11.934;2023-07-22T06:22:24;100347.19;;;20.12;82.12
18533;BME280;9396;51.510;11.934;2023-07-22T06:24:50;100350.13;;;20.48;82.60
18533;BME280;9396;51.510;11.934;2023-07-22T06:27:17;100356.97;;;20.75;81.90
18533;BME280;9396;51.510;11.934;2023-07-22T06:29:43;100350.69;;;20.81;81.70
18533;BME280;9396;51.510;11.934;2023-07-22T06:32:11;100317.41;;;21.05;80.91
18533;BME280;9396;51.510;11.934;2023-07-22T06:34:38;100355.44;;;21.10;76.74
18533;BME280;9396;51.510;11.934;2023-07-22T06:37:05;100351.31;;;21.26;78.08
18533;BME280;9396;51.510;11.934;2023-07-22T06:39:32;100357.25;;;21.71;76.58
18533;BME280;9396;51.510;11.934;2023-07-22T06:41:58;100357.75;;;21.86;76.54
18533;BME280;9396;51.510;11.934;2023-07-22T06:44:25;100360.53;;;22.39;74.76
18533;BME280;9396;51.510;11.934;2023-07-22T06:46:51;100356.91;;;22.15;72.17
18533;BME280;9396;51.510;11.934;2023-07-22T06:49:19;100348.38;;;22.71;72.29
18533;BME280;9396;51.510;11.934;2023-07-22T06:51:46;100355.94;;;22.80;71.32
18533;BME280;9396;51.510;11.934;2023-07-22T06:54:12;100359.13;;;23.47;71.42
18533;BME280;9396;51.510;11.934;2023-07-22T06:56:39;100360.63;;;23.77;70.23
18533;BME280;9396;51.510;11.934;2023-07-22T06:59:06;100355.44;;;23.76;70.95
18533;BME280;9396;51.510;11.934;2023-07-22T07:01:33;100360.22;;;23.46;68.15
18533;BME280;9396;51.510;11.934;2023-07-22T07:03:59;100364.09;;;23.03;70.55
18533;BME280;9396;51.510;11.934;2023-07-22T07:06:28;100365.75;;;23.51;68.97
18533;BME280;9396;51.510;11.934;2023-07-22T07:08:54;100370.28;;;23.85;73.23
18533;BME280;9396;51.510;11.934;2023-07-22T07:11:21;100365.50;;;24.03;68.20
18533;BME280;9396;51.510;11.934;2023-07-22T07:13:48;100363.53;;;24.27;66.17
18533;BME280;9396;51.510;11.934;2023-07-22T07:16:21;100356.28;;;24.32;66.16
18533;BME280;9396;51.510;11.934;2023-07-22T07:18:48;100356.84;;;24.96;64.11
18533;BME280;9396;51.510;11.934;2023-07-22T07:21:15;100357.09;;;24.61;64.78
18533;BME280;9396;51.510;11.934;2023-07-22T07:23:43;100371.59;;;23.82;67.87
18533;BME280;9396;51.510;11.934;2023-07-22T07:26:10;100370.34;;;23.62;67.77
18533;BME280;9396;51.510;11.934;2023-07-22T07:28:37;100370.97;;;23.92;68.88
18533;BME280;9396;51.510;11.934;2023-07-22T07:31:03;100376.38;;;23.64;67.30
18533;BME280;9396;51.510;11.934;2023-07-22T07:33:30;100373.06;;;23.27;71.30
18533;BME280;9396;51.510;11.934;2023-07-22T07:35:57;100379.88;;;22.72;69.10
18533;BME280;9396;51.510;11.934;2023-07-22T07:38:24;100387.06;;;22.37;69.22
18533;BME280;9396;51.510;11.934;2023-07-22T07:40:53;100381.53;;;22.84;71.00
18533;BME280;9396;51.510;11.934;2023-07-22T07:43:20;100381.13;;;23.33;71.18
18533;BME280;9396;51.510;11.934;2023-07-22T07:45:46;100372.53;;;23.88;68.39
18533;BME280;9396;51.510;11.934;2023-07-22T07:48:13;100374.13;;;24.40;64.63
18533;BME280;9396;51.510;11.934;2023-07-22T07:50:39;100371.03;;;24.65;67.50
18533;BME280;9396;51.510;11.934;2023-07-22T07:53:06;100376.00;;;24.84;64.00
18533;BME280;9396;51.510;11.934;2023-07-22T07:55:33;100377.47;;;25.08;64.97
18533;BME280;9396;51.510;11.934;2023-07-22T07:58:01;100371.03;;;25.14;64.77
18533;BME280;9396;51.510;11.934;2023-07-22T08:00:27;100376.63;;;25.41;64.78
18533;BME280;9396;51.510;11.934;2023-07-22T08:02:54;100376.16;;;25.27;68.35
18533;BME280;9396;51.510;11.934;2023-07-22T08:05:21;100385.47;;;24.65;62.67
18533;BME280;9396;51.510;11.934;2023-07-22T08:07:47;100384.53;;;24.60;64.94
18533;BME280;9396;51.510;11.934;2023-07-22T08:10:14;100381.97;;;24.25;64.71
18533;BME280;9396;51.510;11.934;2023-07-22T08:12:41;100395.06;;;24.00;65.03
18533;BME280;9396;51.510;11.934;2023-07-22T08:15:09;100390.78;;;23.41;64.44
18533;BME280;9396;51.510;11.934;2023-07-22T08:17:36;100391.94;;;22.99;67.86
18533;BME280;9396;51.510;11.934;2023-07-22T08:20:03;100395.94;;;22.85;69.21
18533;BME280;9396;51.510;11.934;2023-07-22T08:22:31;100399.50;;;23.08;67.02
18533;BME280;9396;51.510;11.934;2023-07-22T08:24:58;100401.28;;;23.61;71.22
18533;BME280;9396;51.510;11.934;2023-07-22T08:27:24;100407.31;;;24.14;72.34
18533;BME280;9396;51.510;11.934;2023-07-22T08:29:51;100405.94;;;24.11;64.81
18533;BME280;9396;51.510;11.934;2023-07-22T08:32:19;100402.38;;;24.11;67.35
18533;BME280;9396;51.510;11.934;2023-07-22T08:34:46;100400.72;;;24.10;67.34
18533;BME280;9396;51.510;11.934;2023-07-22T08:37:12;100408.41;;;24.01;67.84
18533;BME280;9396;51.510;11.934;2023-07-22T08:39:39;100400.78;;;23.87;68.62
18533;BME280;9396;51.510;11.934;2023-07-22T08:42:07;100409.50;;;23.89;67.87
18533;BME280;9396;51.510;11.934;2023-07-22T08:44:37;100399.47;;;24.01;69.29
18533;BME280;9396;51.510;11.934;2023-07-22T08:47:07;100407.38;;;24.02;68.25
18533;BME280;9396;51.510;11.934;2023-07-22T08:49:39;100407.63;;;24.01;67.04
18533;BME280;9396;51.510;11.934;2023-07-22T08:52:07;100398.63;;;24.28;68.14
18533;BME280;9396;51.510;11.934;2023-07-22T08:54:34;100398.16;;;24.31;70.31
18533;BME280;9396;51.510;11.934;2023-07-22T08:57:01;100391.69;;;24.21;68.45
18533;BME280;9396;51.510;11.934;2023-07-22T08:59:28;100397.13;;;24.21;66.82
18533;BME280;9396;51.510;11.934;2023-07-22T09:01:55;100404.94;;;23.78;69.00
18533;BME280;9396;51.510;11.934;2023-07-22T09:04:23;100405.94;;;23.37;69.71
18533;BME280;9396;51.510;11.934;2023-07-22T09:06:51;100405.56;;;23.33;66.05
18533;BME280;9396;51.510;11.934;2023-07-22T09:09:19;100395.88;;;23.38;71.33
18533;BME280;9396;51.510;11.934;2023-07-22T09:11:47;100390.75;;;23.64;68.66
18533;BME280;9396;51.510;11.934;2023-07-22T09:14:14;100389.13;;;23.52;68.63
18533;BME280;9396;51.510;11.934;2023-07-22T09:16:42;100397.50;;;22.92;69.92
18533;BME280;9396;51.510;11.934;2023-07-22T09:19:09;100389.81;;;23.01;72.32
18533;BME280;9396;51.510;11.934;2023-07-22T09:21:36;100393.06;;;22.68;69.64
18533;BME280;9396;51.510;11.934;2023-07-22T09:24:20;100385.31;;;22.95;70.68
18533;BME280;9396;51.510;11.934;2023-07-22T09:26:47;100376.94;;;23.19;69.00
18533;BME280;9396;51.510;11.934;2023-07-22T09:29:13;100373.19;;;23.32;69.05
18533;BME280;9396;51.510;11.934;2023-07-22T09:31:49;100368.59;;;23.44;69.31
18533;BME280;9396;51.510;11.934;2023-07-22T09:34:16;100374.53;;;23.81;71.47
18533;BME280;9396;51.510;11.934;2023-07-22T09:36:52;100380.31;;;23.96;65.57
18533;BME280;9396;51.510;11.934;2023-07-22T09:39:20;100368.69;;;24.12;69.87
18533;BME280;9396;51.510;11.934;2023-07-22T09:41:47;100365.41;;;24.10;67.37
18533;BME280;9396;51.510;11.934;2023-07-22T09:44:14;100370.00;;;24.09;68.13
18533;BME280;9396;51.510;11.934;2023-07-22T09:46:41;100379.84;;;23.87;66.53
18533;BME280;9396;51.510;11.934;2023-07-22T09:49:08;100374.97;;;23.50;67.59
18533;BME280;9396;51.510;11.934;2023-07-22T09:51:37;100361.25;;;23.45;64.85
18533;BME280;9396;51.510;11.934;2023-07-22T09:54:05;100365.72;;;23.62;68.35
18533;BME280;9396;51.510;11.934;2023-07-22T09:56:43;100363.13;;;23.67;64.06
18533;BME280;9396;51.510;11.934;2023-07-22T09:59:11;100354.06;;;23.62;64.38
18533;BME280;9396;51.510;11.934;2023-07-22T10:01:38;100354.75;;;23.69;64.61
18533;BME280;9396;51.510;11.934;2023-07-22T10:04:06;100367.00;;;23.71;66.67
18533;BME280;9396;51.510;11.934;2023-07-22T10:06:33;100367.53;;;23.57;69.18
18533;BME280;9396;51.510;11.934;2023-07-22T10:09:02;100362.69;;;23.35;67.91
18533;BME280;9396;51.510;11.934;2023-07-22T10:11:34;100360.78;;;23.13;69.29
18533;BME280;9396;51.510;11.934;2023-07-22T10:14:01;100361.16;;;23.16;69.25
18533;BME280;9396;51.510;11.934;2023-07-22T10:16:28;100370.47;;;23.20;68.18
18533;BME280;9396;51.510;11.934;2023-07-22T10:18:55;100360.81;;;23.36;68.18
18533;BME280;9396;51.510;11.934;2023-07-22T10:21:23;100354.53;;;23.47;68.53
18533;BME280;9396;51.510;11.934;2023-07-22T10:23:51;100355.25;;;23.54;68.41
18533;BME280;9396;51.510;11.934;2023-07-22T10:26:19;100360.66;;;23.43;64.35
18533;BME280;9396;51.510;11.934;2023-07-22T10:28:47;100353.13;;;23.45;68.92
18533;BME280;9396;51.510;11.934;2023-07-22T10:31:14;100360.47;;;23.32;65.93
18533;BME280;9396;51.510;11.934;2023-07-22T10:33:44;100351.47;;;23.32;65.66
18533;BME280;9396;51.510;11.934;2023-07-22T10:36:14;100349.00;;;23.30;67.23
18533;BME280;9396;51.510;11.934;2023-07-22T10:38:41;100359.88;;;23.42;68.21
18533;BME280;9396;51.510;11.934;2023-07-22T10:41:12;100352.78;;;23.53;69.31
18533;BME280;9396;51.510;11.934;2023-07-22T10:43:39;100344.81;;;23.63;69.71
18533;BME280;9396;51.510;11.934;2023-07-22T10:46:09;100343.03;;;23.68;65.24
18533;BME280;9396;51.510;11.934;2023-07-22T10:48:38;100347.97;;;23.83;69.25
18533;BME280;9396;51.510;11.934;2023-07-22T10:51:09;100348.06;;;23.88;67.30
18533;BME280;9396;51.510;11.934;2023-07-22T10:53:40;100348.16;;;23.93;66.85
18533;BME280;9396;51.510;11.934;2023-07-22T10:56:14;100352.31;;;23.84;66.07
18533;BME280;9396;51.510;11.934;2023-07-22T10:59:01;100347.22;;;23.87;65.87
18533;BME280;9396;51.510;11.934;2023-07-22T11:01:40;100338.28;;;23.87;65.59
18533;BME280;9396;51.510;11.934;2023-07-22T11:04:20;100331.59;;;23.94;63.21
18533;BME280;9396;51.510;11.934;2023-07-22T11:06:53;100335.66;;;23.92;67.61
18533;BME280;9396;51.510;11.934;2023-07-22T11:09:37;100328.94;;;23.83;67.32
18533;BME280;9396;51.510;11.934;2023-07-22T11:12:05;100339.84;;;23.71;65.32
18533;BME280;9396;51.510;11.934;2023-07-22T11:14:33;100333.59;;;23.59;64.85
18533;BME280;9396;51.510;11.934;2023-07-22T11:17:03;100342.34;;;23.61;70.74
18533;BME280;9396;51.510;11.934;2023-07-22T11:19:31;100344.63;;;23.41;66.06
18533;BME280;9396;51.510;11.934;2023-07-22T11:21:59;100340.41;;;23.33;69.36
18533;BME280;9396;51.510;11.934;2023-07-22T11:24:26;100327.28;;;23.19;68.06
18533;BME280;9396;51.510;11.934;2023-07-22T11:26:53;100338.00;;;23.25;66.81
18533;BME280;9396;51.510;11.934;2023-07-22T11:29:20;100341.09;;;23.17;66.08
18533;BME280;9396;51.510;11.934;2023-07-22T11:31:48;100338.38;;;23.06;66.75
18533;BME280;9396;51.510;11.934;2023-07-22T11:34:17;100333.88;;;23.00;66.64
18533;BME280;9396;51.510;11.934;2023-07-22T11:36:46;100341.81;;;23.01;69.69
18533;BME280;9396;51.510;11.934;2023-07-22T11:39:15;100335.53;;;23.01;68.67
18533;BME280;9396;51.510;11.934;2023-07-22T11:41:42;100334.47;;;22.90;68.82
18533;BME280;9396;51.510;11.934;2023-07-22T11:44:11;100341.78;;;22.78;69.78
18533;BME280;9396;51.510;11.934;2023-07-22T11:46:47;100338.84;;;22.80;74.01
18533;BME280;9396;51.510;11.934;2023-07-22T11:49:23;100339.16;;;22.72;71.88
18533;BME280;9396;51.510;11.934;2023-07-22T11:51:50;100334.47;;;22.67;70.16
18533;BME280;9396;51.510;11.934;2023-07-22T11:54:18;100342.13;;;22.70;69.65
18533;BME280;9396;51.510;11.934;2023-07-22T11:56:46;100337.19;;;22.67;72.27
18533;BME280;9396;51.510;11.934;2023-07-22T11:59:13;100330.28;;;22.53;70.02
18533;BME280;9396;51.510;11.934;2023-07-22T12:01:43;100340.72;;;22.38;71.11
18533;BME280;9396;51.510;11.934;2023-07-22T12:04:10;100332.13;;;22.41;69.65
18533;BME280;9396;51.510;11.934;2023-07-22T12:06:39;100334.03;;;22.41;68.90
18533;BME280;9396;51.510;11.934;2023-07-22T12:09:07;100332.34;;;22.28;67.41
18533;BME280;9396;51.510;11.934;2023-07-22T12:11:34;100344.69;;;22.24;68.93
18533;BME280;9396;51.510;11.934;2023-07-22T12:14:07;100343.88;;;22.23;69.68
18533;BME280;9396;51.510;11.934;2023-07-22T12:16:34;100340.56;;;22.21;68.74
18533;BME280;9396;51.510;11.934;2023-07-22T12:19:01;100339.97;;;22.19;68.50
18533;BME280;9396;51.510;11.934;2023-07-22T12:21:28;100330.69;;;22.27;69.33
18533;BME280;9396;51.510;11.934;2023-07-22T12:23:56;100339.09;;;22.37;70.44
18533;BME280;9396;51.510;11.934;2023-07-22T12:26:23;100328.84;;;22.51;70.69
18533;BME280;9396;51.510;11.934;2023-07-22T12:28:49;100331.28;;;22.59;69.70
18533;BME280;9396;51.510;11.934;2023-07-22T12:31:16;100319.84;;;22.68;71.22
18533;BME280;9396;51.510;11.934;2023-07-22T12:33:42;100327.41;;;22.78;68.70
18533;BME280;9396;51.510;11.934;2023-07-22T12:36:09;100319.03;;;22.79;68.42
18533;BME280;9396;51.510;11.934;2023-07-22T12:38:36;100319.84;;;22.91;67.17
18533;BME280;9396;51.510;11.934;2023-07-22T12:41:04;100313.13;;;23.05;70.39
18533;BME280;9396;51.510;11.934;2023-07-22T12:43:30;100312.50;;;23.03;69.46
18533;BME280;9396;51.510;11.934;2023-07-22T12:45:57;100316.78;;;22.99;70.13
18533;BME280;9396;51.510;11.934;2023-07-22T12:48:24;100321.16;;;22.89;69.78